sensor_id;sensor_type;location;lat;lon;timestamp;P1;durP1;ratioP1;P2;durP2;ratioP2
27543;SDS011;17996;51.056;3.656;2022-07-29T00:00:04;6.15;;;2.80;;
27543;SDS011;17996;51.056;3.656;2022-07-29T00:02:31;7.88;;;2.78;;
27543;SDS011;17996;51.056;3.656;2022-07-29T00:04:57;11.38;;;2.80;;
27543;SDS011;17996;51.056;3.656;2022-07-29T00:07:23;6.07;;;3.08;;
27543;SDS011;17996;51.056;3.656;2022-07-29T00:09:49;4.82;;;2.72;;
27543;SDS011;17996;51.056;3.656;2022-07-29T00:12:15;8.50;;;3.03;;
27543;SDS011;17996;51.056;3.656;2022-07-29T00:14:40;11.77;;;3.28;;
27543;SDS011;17996;51.056;3.656;2022-07-29T00:17:06;4.50;;;2.72;;
27543;SDS011;17996;51.056;3.656;2022-07-29T00:19:32;7.68;;;3.03;;
27543;SDS011;17996;51.056;3.656;2022-07-29T00:21:59;13.93;;;3.78;;
27543;SDS011;17996;51.056;3.656;2022-07-29T00:24:25;10.60;;;3.78;;
27543;SDS011;17996;51.056;3.656;2022-07-29T00:26:50;8.50;;;2.83;;
27543;SDS011;17996;51.056;3.656;2022-07-29T00:29:17;8.50;;;3.75;;
27543;SDS011;17996;51.056;3.656;2022-07-29T00:31:43;10.13;;;3.08;;
27543;SDS011;17996;51.056;3.656;2022-07-29T00:34:09;8.95;;;3.17;;
27543;SDS011;17996;51.056;3.656;2022-07-29T00:36:54;12.18;;;3.30;;
27543;SDS011;17996;51.056;3.656;2022-07-29T00:39:20;6.43;;;3.50;;
27543;SDS011;17996;51.056;3.656;2022-07-29T00:41:46;7.72;;;3.25;;
27543;SDS011;17996;51.056;3.656;2022-07-29T00:44:12;12.63;;;3.53;;
27543;SDS011;17996;51.056;3.656;2022-07-29T00:46:37;8.70;;;2.85;;
27543;SDS011;17996;51.056;3.656;2022-07-29T00:49:03;6.75;;;3.03;;
27543;SDS011;17996;51.056;3.656;2022-07-29T00:51:29;14.90;;;4.30;;
27543;SDS011;17996;51.056;3.656;2022-07-29T00:53:56;8.63;;;3.25;;
27543;SDS011;17996;51.056;3.656;2022-07-29T00:56:22;5.93;;;2.97;;
27543;SDS011;17996;51.056;3.656;2022-07-29T00:58:47;9.60;;;3.60;;
27543;SDS011;17996;51.056;3.656;2022-07-29T01:01:15;9.88;;;2.88;;
27543;SDS011;17996;51.056;3.656;2022-07-29T01:03:41;11.10;;;3.42;;
27543;SDS011;17996;51.056;3.656;2022-07-29T01:06:06;7.18;;;2.92;;
27543;SDS011;17996;51.056;3.656;2022-07-29T01:08:32;5.70;;;2.92;;
27543;SDS011;17996;51.056;3.656;2022-07-29T01:10:59;6.90;;;3.05;;
27543;SDS011;17996;51.056;3.656;2022-07-29T01:13:26;9.80;;;2.95;;
27543;SDS011;17996;51.056;3.656;2022-07-29T01:15:56;8.77;;;3.75;;
27543;SDS011;17996;51.056;3.656;2022-07-29T01:18:33;5.72;;;3.00;;
27543;SDS011;17996;51.056;3.656;2022-07-29T01:29:12;5.50;;;3.17;;
27543;SDS011;17996;51.056;3.656;2022-07-29T01:31:51;4.75;;;2.90;;
27543;SDS011;17996;51.056;3.656;2022-07-29T01:37:26;7.85;;;3.72;;
27543;SDS011;17996;51.056;3.656;2022-07-29T01:39:54;11.75;;;3.45;;
27543;SDS011;17996;51.056;3.656;2022-07-29T01:42:33;12.27;;;3.67;;
27543;SDS011;17996;51.056;3.656;2022-07-29T01:45:14;8.10;;;3.30;;
27543;SDS011;17996;51.056;3.656;2022-07-29T01:47:46;6.82;;;3.00;;
27543;SDS011;17996;51.056;3.656;2022-07-29T01:50:33;6.65;;;3.30;;
27543;SDS011;17996;51.056;3.656;2022-07-29T01:53:04;5.25;;;3.30;;
27543;SDS011;17996;51.056;3.656;2022-07-29T01:55:35;8.57;;;2.97;;
27543;SDS011;17996;51.056;3.656;2022-07-29T01:58:04;7.07;;;2.95;;
27543;SDS011;17996;51.056;3.656;2022-07-29T02:00:30;7.75;;;2.75;;
27543;SDS011;17996;51.056;3.656;2022-07-29T02:03:02;10.02;;;2.53;;
27543;SDS011;17996;51.056;3.656;2022-07-29T02:05:32;5.80;;;3.15;;
27543;SDS011;17996;51.056;3.656;2022-07-29T02:07:59;5.03;;;2.58;;
27543;SDS011;17996;51.056;3.656;2022-07-29T02:10:27;6.28;;;2.97;;
27543;SDS011;17996;51.056;3.656;2022-07-29T02:12:56;6.53;;;3.00;;
27543;SDS011;17996;51.056;3.656;2022-07-29T02:15:24;6.38;;;2.30;;
27543;SDS011;17996;51.056;3.656;2022-07-29T02:17:55;3.97;;;2.33;;
27543;SDS011;17996;51.056;3.656;2022-07-29T02:20:25;6.07;;;2.60;;
27543;SDS011;17996;51.056;3.656;2022-07-29T02:22:52;7.47;;;2.83;;
27543;SDS011;17996;51.056;3.656;2022-07-29T02:25:20;7.88;;;2.63;;
27543;SDS011;17996;51.056;3.656;2022-07-29T02:27:48;7.75;;;3.03;;
27543;SDS011;17996;51.056;3.656;2022-07-29T02:30:16;10.60;;;3.08;;
27543;SDS011;17996;51.056;3.656;2022-07-29T02:32:43;5.15;;;3.33;;
27543;SDS011;17996;51.056;3.656;2022-07-29T02:35:12;8.70;;;3.28;;
27543;SDS011;17996;51.056;3.656;2022-07-29T02:37:39;8.38;;;2.60;;
27543;SDS011;17996;51.056;3.656;2022-07-29T02:40:08;5.65;;;2.70;;
27543;SDS011;17996;51.056;3.656;2022-07-29T02:42:36;6.20;;;2.85;;
27543;SDS011;17996;51.056;3.656;2022-07-29T02:45:04;7.00;;;2.70;;
27543;SDS011;17996;51.056;3.656;2022-07-29T02:47:34;9.63;;;3.17;;
27543;SDS011;17996;51.056;3.656;2022-07-29T02:50:17;9.77;;;3.28;;
27543;SDS011;17996;51.056;3.656;2022-07-29T02:53:07;4.15;;;2.47;;
27543;SDS011;17996;51.056;3.656;2022-07-29T03:01:13;5.28;;;2.38;;
27543;SDS011;17996;51.056;3.656;2022-07-29T03:03:42;3.60;;;2.47;;
27543;SDS011;17996;51.056;3.656;2022-07-29T03:06:10;4.10;;;2.63;;
27543;SDS011;17996;51.056;3.656;2022-07-29T03:08:38;7.80;;;2.65;;
27543;SDS011;17996;51.056;3.656;2022-07-29T03:11:05;7.85;;;3.25;;
27543;SDS011;17996;51.056;3.656;2022-07-29T03:13:32;6.40;;;2.70;;
27543;SDS011;17996;51.056;3.656;2022-07-29T03:15:58;3.35;;;2.60;;
27543;SDS011;17996;51.056;3.656;2022-07-29T03:18:24;5.60;;;2.80;;
27543;SDS011;17996;51.056;3.656;2022-07-29T03:20:51;8.48;;;3.38;;
27543;SDS011;17996;51.056;3.656;2022-07-29T03:23:19;7.47;;;2.70;;
27543;SDS011;17996;51.056;3.656;2022-07-29T03:25:47;6.65;;;2.78;;
27543;SDS011;17996;51.056;3.656;2022-07-29T03:28:14;5.63;;;2.78;;
27543;SDS011;17996;51.056;3.656;2022-07-29T03:30:40;4.50;;;2.83;;
27543;SDS011;17996;51.056;3.656;2022-07-29T03:33:05;8.05;;;2.55;;
27543;SDS011;17996;51.056;3.656;2022-07-29T03:35:31;5.63;;;2.88;;
27543;SDS011;17996;51.056;3.656;2022-07-29T03:37:57;9.20;;;2.97;;
27543;SDS011;17996;51.056;3.656;2022-07-29T03:40:35;12.05;;;2.67;;
27543;SDS011;17996;51.056;3.656;2022-07-29T03:43:10;6.45;;;2.63;;
27543;SDS011;17996;51.056;3.656;2022-07-29T03:45:38;14.23;;;3.27;;
27543;SDS011;17996;51.056;3.656;2022-07-29T03:48:08;5.20;;;2.95;;
27543;SDS011;17996;51.056;3.656;2022-07-29T03:50:37;7.05;;;2.70;;
27543;SDS011;17996;51.056;3.656;2022-07-29T03:53:03;5.20;;;2.75;;
27543;SDS011;17996;51.056;3.656;2022-07-29T03:55:32;5.97;;;2.85;;
27543;SDS011;17996;51.056;3.656;2022-07-29T03:58:02;3.90;;;3.22;;
27543;SDS011;17996;51.056;3.656;2022-07-29T04:00:29;4.78;;;2.60;;
27543;SDS011;17996;51.056;3.656;2022-07-29T04:02:56;9.40;;;2.92;;
27543;SDS011;17996;51.056;3.656;2022-07-29T04:05:22;6.68;;;3.03;;
27543;SDS011;17996;51.056;3.656;2022-07-29T04:07:48;7.18;;;3.13;;
27543;SDS011;17996;51.056;3.656;2022-07-29T04:10:14;5.88;;;2.67;;
27543;SDS011;17996;51.056;3.656;2022-07-29T04:12:42;5.40;;;3.22;;
27543;SDS011;17996;51.056;3.656;2022-07-29T04:15:08;6.00;;;2.70;;
27543;SDS011;17996;51.056;3.656;2022-07-29T04:17:34;5.50;;;2.60;;
27543;SDS011;17996;51.056;3.656;2022-07-29T04:19:59;7.20;;;3.17;;
27543;SDS011;17996;51.056;3.656;2022-07-29T04:22:25;4.68;;;2.70;;
27543;SDS011;17996;51.056;3.656;2022-07-29T04:24:51;6.25;;;3.33;;
27543;SDS011;17996;51.056;3.656;2022-07-29T04:27:16;9.07;;;3.25;;
27543;SDS011;17996;51.056;3.656;2022-07-29T04:29:42;7.25;;;3.22;;
27543;SDS011;17996;51.056;3.656;2022-07-29T04:32:08;7.45;;;2.95;;
27543;SDS011;17996;51.056;3.656;2022-07-29T04:34:33;9.40;;;2.67;;
27543;SDS011;17996;51.056;3.656;2022-07-29T04:36:59;5.50;;;3.00;;
27543;SDS011;17996;51.056;3.656;2022-07-29T04:39:25;5.07;;;2.97;;
27543;SDS011;17996;51.056;3.656;2022-07-29T04:41:50;5.97;;;2.90;;
27543;SDS011;17996;51.056;3.656;2022-07-29T04:44:16;3.38;;;2.70;;
27543;SDS011;17996;51.056;3.656;2022-07-29T04:46:42;4.07;;;2.80;;
27543;SDS011;17996;51.056;3.656;2022-07-29T04:49:08;5.35;;;2.80;;
27543;SDS011;17996;51.056;3.656;2022-07-29T04:51:34;9.15;;;3.17;;
27543;SDS011;17996;51.056;3.656;2022-07-29T04:54:00;7.68;;;2.95;;
27543;SDS011;17996;51.056;3.656;2022-07-29T04:56:25;5.75;;;2.70;;
27543;SDS011;17996;51.056;3.656;2022-07-29T04:58:52;7.13;;;3.05;;
27543;SDS011;17996;51.056;3.656;2022-07-29T05:01:17;8.07;;;3.03;;
27543;SDS011;17996;51.056;3.656;2022-07-29T05:03:44;7.50;;;3.45;;
27543;SDS011;17996;51.056;3.656;2022-07-29T05:06:10;6.43;;;3.53;;
27543;SDS011;17996;51.056;3.656;2022-07-29T05:08:36;3.83;;;3.33;;
27543;SDS011;17996;51.056;3.656;2022-07-29T05:11:02;6.90;;;3.60;;
27543;SDS011;17996;51.056;3.656;2022-07-29T05:13:28;8.35;;;3.80;;
27543;SDS011;17996;51.056;3.656;2022-07-29T05:15:54;6.13;;;3.20;;
27543;SDS011;17996;51.056;3.656;2022-07-29T05:18:19;6.80;;;2.97;;
27543;SDS011;17996;51.056;3.656;2022-07-29T05:20:45;6.45;;;3.45;;
27543;SDS011;17996;51.056;3.656;2022-07-29T05:23:11;9.50;;;3.33;;
27543;SDS011;17996;51.056;3.656;2022-07-29T05:25:39;5.95;;;3.63;;
27543;SDS011;17996;51.056;3.656;2022-07-29T05:28:05;6.90;;;3.25;;
27543;SDS011;17996;51.056;3.656;2022-07-29T05:30:31;8.50;;;3.67;;
27543;SDS011;17996;51.056;3.656;2022-07-29T05:32:57;13.82;;;4.13;;
27543;SDS011;17996;51.056;3.656;2022-07-29T05:35:22;5.57;;;2.90;;
27543;SDS011;17996;51.056;3.656;2022-07-29T05:37:48;6.20;;;3.75;;
27543;SDS011;17996;51.056;3.656;2022-07-29T05:40:14;8.30;;;3.58;;
27543;SDS011;17996;51.056;3.656;2022-07-29T05:42:39;12.00;;;3.47;;
27543;SDS011;17996;51.056;3.656;2022-07-29T05:45:05;5.03;;;3.10;;
27543;SDS011;17996;51.056;3.656;2022-07-29T05:47:31;7.28;;;3.53;;
27543;SDS011;17996;51.056;3.656;2022-07-29T05:49:57;7.70;;;3.63;;
27543;SDS011;17996;51.056;3.656;2022-07-29T05:52:22;5.63;;;3.13;;
27543;SDS011;17996;51.056;3.656;2022-07-29T05:54:48;7.35;;;3.60;;
27543;SDS011;17996;51.056;3.656;2022-07-29T05:57:21;8.32;;;4.00;;
27543;SDS011;17996;51.056;3.656;2022-07-29T05:59:48;10.30;;;3.80;;
27543;SDS011;17996;51.056;3.656;2022-07-29T06:02:15;11.60;;;4.07;;
27543;SDS011;17996;51.056;3.656;2022-07-29T06:04:41;11.00;;;3.90;;
27543;SDS011;17996;51.056;3.656;2022-07-29T06:07:07;7.47;;;3.80;;
27543;SDS011;17996;51.056;3.656;2022-07-29T06:09:34;8.50;;;3.33;;
27543;SDS011;17996;51.056;3.656;2022-07-29T06:12:00;7.10;;;3.30;;
27543;SDS011;17996;51.056;3.656;2022-07-29T06:14:27;7.30;;;3.88;;
27543;SDS011;17996;51.056;3.656;2022-07-29T06:16:53;6.97;;;3.35;;
27543;SDS011;17996;51.056;3.656;2022-07-29T06:19:19;7.65;;;4.00;;
27543;SDS011;17996;51.056;3.656;2022-07-29T06:21:45;8.70;;;4.32;;
27543;SDS011;17996;51.056;3.656;2022-07-29T06:24:12;11.23;;;4.28;;
27543;SDS011;17996;51.056;3.656;2022-07-29T06:26:39;9.05;;;4.10;;
27543;SDS011;17996;51.056;3.656;2022-07-29T06:29:05;6.50;;;3.58;;
27543;SDS011;17996;51.056;3.656;2022-07-29T06:31:31;9.13;;;4.28;;
27543;SDS011;17996;51.056;3.656;2022-07-29T06:33:57;7.95;;;4.20;;
27543;SDS011;17996;51.056;3.656;2022-07-29T06:36:23;5.95;;;3.63;;
27543;SDS011;17996;51.056;3.656;2022-07-29T06:38:48;12.95;;;4.38;;
27543;SDS011;17996;51.056;3.656;2022-07-29T06:41:14;11.45;;;4.90;;
27543;SDS011;17996;51.056;3.656;2022-07-29T06:43:41;15.00;;;5.05;;
27543;SDS011;17996;51.056;3.656;2022-07-29T06:46:09;16.95;;;5.90;;
27543;SDS011;17996;51.056;3.656;2022-07-29T06:48:37;15.80;;;5.00;;
27543;SDS011;17996;51.056;3.656;2022-07-29T06:51:03;15.88;;;5.55;;
27543;SDS011;17996;51.056;3.656;2022-07-29T06:53:30;9.30;;;5.35;;
27543;SDS011;17996;51.056;3.656;2022-07-29T06:55:57;9.77;;;5.30;;
27543;SDS011;17996;51.056;3.656;2022-07-29T06:58:24;27.55;;;6.85;;
27543;SDS011;17996;51.056;3.656;2022-07-29T07:00:50;20.48;;;7.63;;
27543;SDS011;17996;51.056;3.656;2022-07-29T07:03:16;18.08;;;6.80;;
27543;SDS011;17996;51.056;3.656;2022-07-29T07:05:43;11.00;;;7.22;;
27543;SDS011;17996;51.056;3.656;2022-07-29T07:08:10;16.25;;;8.88;;
27543;SDS011;17996;51.056;3.656;2022-07-29T07:10:36;14.02;;;7.50;;
27543;SDS011;17996;51.056;3.656;2022-07-29T07:13:01;13.02;;;7.63;;
27543;SDS011;17996;51.056;3.656;2022-07-29T07:15:28;15.50;;;7.22;;
27543;SDS011;17996;51.056;3.656;2022-07-29T07:17:54;13.50;;;7.50;;
27543;SDS011;17996;51.056;3.656;2022-07-29T07:20:19;19.58;;;7.07;;
27543;SDS011;17996;51.056;3.656;2022-07-29T07:22:45;17.25;;;7.05;;
27543;SDS011;17996;51.056;3.656;2022-07-29T07:25:11;16.17;;;9.00;;
27543;SDS011;17996;51.056;3.656;2022-07-29T07:27:37;15.52;;;8.82;;
27543;SDS011;17996;51.056;3.656;2022-07-29T07:30:03;20.25;;;7.15;;
27543;SDS011;17996;51.056;3.656;2022-07-29T07:32:34;16.23;;;7.72;;
27543;SDS011;17996;51.056;3.656;2022-07-29T07:35:00;28.40;;;9.10;;
27543;SDS011;17996;51.056;3.656;2022-07-29T07:37:26;15.43;;;7.95;;
27543;SDS011;17996;51.056;3.656;2022-07-29T07:39:52;13.25;;;7.75;;
27543;SDS011;17996;51.056;3.656;2022-07-29T07:42:18;13.80;;;8.02;;
27543;SDS011;17996;51.056;3.656;2022-07-29T07:44:44;20.73;;;9.20;;
27543;SDS011;17996;51.056;3.656;2022-07-29T07:47:11;19.23;;;8.43;;
27543;SDS011;17996;51.056;3.656;2022-07-29T07:49:37;20.25;;;8.32;;
27543;SDS011;17996;51.056;3.656;2022-07-29T07:52:04;18.23;;;6.85;;
27543;SDS011;17996;51.056;3.656;2022-07-29T07:54:30;19.15;;;7.47;;
27543;SDS011;17996;51.056;3.656;2022-07-29T07:56:56;23.88;;;7.93;;
27543;SDS011;17996;51.056;3.656;2022-07-29T07:59:22;14.85;;;7.57;;
27543;SDS011;17996;51.056;3.656;2022-07-29T08:01:48;15.30;;;6.75;;
27543;SDS011;17996;51.056;3.656;2022-07-29T08:04:14;16.25;;;7.90;;
27543;SDS011;17996;51.056;3.656;2022-07-29T08:06:39;13.05;;;7.15;;
27543;SDS011;17996;51.056;3.656;2022-07-29T08:09:05;13.70;;;6.60;;
27543;SDS011;17996;51.056;3.656;2022-07-29T08:11:31;11.50;;;6.50;;
27543;SDS011;17996;51.056;3.656;2022-07-29T08:13:57;19.83;;;7.93;;
27543;SDS011;17996;51.056;3.656;2022-07-29T08:16:24;11.82;;;6.13;;
27543;SDS011;17996;51.056;3.656;2022-07-29T08:18:50;9.52;;;6.50;;
27543;SDS011;17996;51.056;3.656;2022-07-29T08:21:16;20.35;;;6.50;;
27543;SDS011;17996;51.056;3.656;2022-07-29T08:23:45;11.55;;;5.72;;
27543;SDS011;17996;51.056;3.656;2022-07-29T08:26:14;11.32;;;6.13;;
27543;SDS011;17996;51.056;3.656;2022-07-29T08:28:41;10.13;;;5.88;;
27543;SDS011;17996;51.056;3.656;2022-07-29T08:31:11;10.05;;;5.50;;
27543;SDS011;17996;51.056;3.656;2022-07-29T08:33:37;16.15;;;6.97;;
27543;SDS011;17996;51.056;3.656;2022-07-29T08:36:03;11.95;;;6.18;;
27543;SDS011;17996;51.056;3.656;2022-07-29T08:38:29;9.27;;;6.15;;
27543;SDS011;17996;51.056;3.656;2022-07-29T08:40:55;6.53;;;5.43;;
27543;SDS011;17996;51.056;3.656;2022-07-29T08:43:21;7.18;;;5.47;;
27543;SDS011;17996;51.056;3.656;2022-07-29T08:45:48;10.77;;;5.88;;
27543;SDS011;17996;51.056;3.656;2022-07-29T08:48:16;8.40;;;5.13;;
27543;SDS011;17996;51.056;3.656;2022-07-29T08:50:53;10.65;;;5.50;;
27543;SDS011;17996;51.056;3.656;2022-07-29T08:53:20;7.63;;;4.85;;
27543;SDS011;17996;51.056;3.656;2022-07-29T08:55:49;11.43;;;5.40;;
27543;SDS011;17996;51.056;3.656;2022-07-29T08:58:15;8.50;;;5.00;;
27543;SDS011;17996;51.056;3.656;2022-07-29T09:00:43;9.65;;;5.43;;
27543;SDS011;17996;51.056;3.656;2022-07-29T09:03:12;7.70;;;4.70;;
27543;SDS011;17996;51.056;3.656;2022-07-29T09:05:46;9.80;;;4.28;;
27543;SDS011;17996;51.056;3.656;2022-07-29T09:08:13;8.02;;;3.90;;
27543;SDS011;17996;51.056;3.656;2022-07-29T09:10:39;10.32;;;4.63;;
27543;SDS011;17996;51.056;3.656;2022-07-29T09:13:05;6.00;;;3.97;;
27543;SDS011;17996;51.056;3.656;2022-07-29T09:15:31;7.43;;;4.13;;
27543;SDS011;17996;51.056;3.656;2022-07-29T09:17:58;13.75;;;5.22;;
27543;SDS011;17996;51.056;3.656;2022-07-29T09:20:25;6.47;;;4.35;;
27543;SDS011;17996;51.056;3.656;2022-07-29T09:22:52;9.85;;;3.88;;
27543;SDS011;17996;51.056;3.656;2022-07-29T09:25:34;8.85;;;4.40;;
27543;SDS011;17996;51.056;3.656;2022-07-29T09:28:10;6.18;;;3.80;;
27543;SDS011;17996;51.056;3.656;2022-07-29T09:30:55;7.05;;;4.22;;
27543;SDS011;17996;51.056;3.656;2022-07-29T09:33:23;11.20;;;4.85;;
27543;SDS011;17996;51.056;3.656;2022-07-29T09:36:00;7.18;;;4.75;;
27543;SDS011;17996;51.056;3.656;2022-07-29T09:38:32;7.40;;;4.20;;
27543;SDS011;17996;51.056;3.656;2022-07-29T09:40:59;8.23;;;3.42;;
27543;SDS011;17996;51.056;3.656;2022-07-29T09:43:25;13.13;;;3.50;;
27543;SDS011;17996;51.056;3.656;2022-07-29T09:45:51;9.43;;;4.22;;
27543;SDS011;17996;51.056;3.656;2022-07-29T09:48:17;7.72;;;3.50;;
27543;SDS011;17996;51.056;3.656;2022-07-29T09:50:45;14.98;;;4.32;;
27543;SDS011;17996;51.056;3.656;2022-07-29T09:56:03;9.25;;;3.65;;
27543;SDS011;17996;51.056;3.656;2022-07-29T09:58:30;8.27;;;3.72;;
27543;SDS011;17996;51.056;3.656;2022-07-29T10:00:58;5.32;;;2.22;;
27543;SDS011;17996;51.056;3.656;2022-07-29T10:03:24;13.43;;;2.92;;
27543;SDS011;17996;51.056;3.656;2022-07-29T10:06:09;4.90;;;2.97;;
27543;SDS011;17996;51.056;3.656;2022-07-29T10:08:36;4.15;;;2.42;;
27543;SDS011;17996;51.056;3.656;2022-07-29T10:11:12;9.38;;;3.53;;
27543;SDS011;17996;51.056;3.656;2022-07-29T10:13:40;6.80;;;2.40;;
27543;SDS011;17996;51.056;3.656;2022-07-29T10:16:06;6.00;;;3.30;;
27543;SDS011;17996;51.056;3.656;2022-07-29T10:18:33;9.35;;;2.85;;
27543;SDS011;17996;51.056;3.656;2022-07-29T10:20:59;10.48;;;2.83;;
27543;SDS011;17996;51.056;3.656;2022-07-29T10:23:26;8.63;;;2.60;;
27543;SDS011;17996;51.056;3.656;2022-07-29T10:28:21;6.10;;;2.40;;
27543;SDS011;17996;51.056;3.656;2022-07-29T10:30:46;13.00;;;3.13;;
27543;SDS011;17996;51.056;3.656;2022-07-29T10:38:31;9.52;;;2.95;;
27543;SDS011;17996;51.056;3.656;2022-07-29T10:43:57;10.02;;;3.00;;
27543;SDS011;17996;51.056;3.656;2022-07-29T10:46:38;10.93;;;2.10;;
27543;SDS011;17996;51.056;3.656;2022-07-29T10:51:50;6.57;;;2.90;;
27543;SDS011;17996;51.056;3.656;2022-07-29T10:54:58;6.78;;;2.25;;
27543;SDS011;17996;51.056;3.656;2022-07-29T10:57:20;10.45;;;3.10;;
27543;SDS011;17996;51.056;3.656;2022-07-29T10:59:47;9.55;;;2.30;;
27543;SDS011;17996;51.056;3.656;2022-07-29T11:04:58;10.25;;;2.75;;
27543;SDS011;17996;51.056;3.656;2022-07-29T11:07:31;12.60;;;3.13;;
27543;SDS011;17996;51.056;3.656;2022-07-29T11:23:29;5.13;;;2.15;;
27543;SDS011;17996;51.056;3.656;2022-07-29T11:26:20;7.30;;;2.75;;
27543;SDS011;17996;51.056;3.656;2022-07-29T11:31:39;8.70;;;2.47;;
27543;SDS011;17996;51.056;3.656;2022-07-29T11:39:46;6.57;;;2.40;;
27543;SDS011;17996;51.056;3.656;2022-07-29T11:45:01;10.40;;;2.50;;
27543;SDS011;17996;51.056;3.656;2022-07-29T11:47:31;10.82;;;2.40;;
27543;SDS011;17996;51.056;3.656;2022-07-29T11:50:06;7.95;;;2.45;;
27543;SDS011;17996;51.056;3.656;2022-07-29T11:55:03;9.02;;;2.65;;
27543;SDS011;17996;51.056;3.656;2022-07-29T11:57:30;7.55;;;2.65;;
27543;SDS011;17996;51.056;3.656;2022-07-29T11:59:57;12.10;;;2.78;;
27543;SDS011;17996;51.056;3.656;2022-07-29T12:02:23;7.50;;;2.65;;
27543;SDS011;17996;51.056;3.656;2022-07-29T12:07:33;11.40;;;2.20;;
27543;SDS011;17996;51.056;3.656;2022-07-29T12:09:59;10.10;;;3.05;;
27543;SDS011;17996;51.056;3.656;2022-07-29T12:12:26;9.25;;;2.83;;
27543;SDS011;17996;51.056;3.656;2022-07-29T12:14:52;7.53;;;2.78;;
27543;SDS011;17996;51.056;3.656;2022-07-29T12:17:26;8.77;;;2.65;;
27543;SDS011;17996;51.056;3.656;2022-07-29T12:19:58;12.35;;;3.13;;
27543;SDS011;17996;51.056;3.656;2022-07-29T12:22:29;7.35;;;2.78;;
27543;SDS011;17996;51.056;3.656;2022-07-29T12:25:18;10.98;;;2.80;;
27543;SDS011;17996;51.056;3.656;2022-07-29T12:27:43;12.55;;;3.15;;
27543;SDS011;17996;51.056;3.656;2022-07-29T12:30:09;5.00;;;2.20;;
27543;SDS011;17996;51.056;3.656;2022-07-29T12:32:38;12.45;;;2.40;;
27543;SDS011;17996;51.056;3.656;2022-07-29T12:35:17;4.53;;;2.40;;
27543;SDS011;17996;51.056;3.656;2022-07-29T12:37:47;12.30;;;3.25;;
27543;SDS011;17996;51.056;3.656;2022-07-29T12:40:15;7.45;;;2.80;;
27543;SDS011;17996;51.056;3.656;2022-07-29T12:45:45;12.82;;;3.40;;
27543;SDS011;17996;51.056;3.656;2022-07-29T12:50:58;8.63;;;3.08;;
27543;SDS011;17996;51.056;3.656;2022-07-29T12:53:26;11.85;;;3.30;;
27543;SDS011;17996;51.056;3.656;2022-07-29T12:55:52;7.70;;;3.33;;
27543;SDS011;17996;51.056;3.656;2022-07-29T12:58:33;9.10;;;2.83;;
27543;SDS011;17996;51.056;3.656;2022-07-29T13:03:50;8.20;;;2.70;;
27543;SDS011;17996;51.056;3.656;2022-07-29T13:11:29;6.25;;;2.70;;
27543;SDS011;17996;51.056;3.656;2022-07-29T13:13:58;17.40;;;4.03;;
27543;SDS011;17996;51.056;3.656;2022-07-29T13:16:23;11.73;;;3.30;;
27543;SDS011;17996;51.056;3.656;2022-07-29T13:18:54;5.68;;;2.75;;
27543;SDS011;17996;51.056;3.656;2022-07-29T13:21:28;11.43;;;3.67;;
27543;SDS011;17996;51.056;3.656;2022-07-29T13:23:54;8.52;;;2.95;;
27543;SDS011;17996;51.056;3.656;2022-07-29T13:26:20;13.57;;;3.13;;
27543;SDS011;17996;51.056;3.656;2022-07-29T13:28:45;9.00;;;2.78;;
27543;SDS011;17996;51.056;3.656;2022-07-29T13:31:11;4.80;;;2.38;;
27543;SDS011;17996;51.056;3.656;2022-07-29T13:33:37;10.05;;;2.72;;
27543;SDS011;17996;51.056;3.656;2022-07-29T13:36:03;7.75;;;2.83;;
27543;SDS011;17996;51.056;3.656;2022-07-29T13:38:28;8.38;;;2.75;;
27543;SDS011;17996;51.056;3.656;2022-07-29T13:40:54;6.55;;;2.97;;
27543;SDS011;17996;51.056;3.656;2022-07-29T13:43:20;8.57;;;2.67;;
27543;SDS011;17996;51.056;3.656;2022-07-29T13:45:45;10.18;;;2.92;;
27543;SDS011;17996;51.056;3.656;2022-07-29T13:48:11;11.38;;;2.55;;
27543;SDS011;17996;51.056;3.656;2022-07-29T13:50:36;13.25;;;3.33;;
27543;SDS011;17996;51.056;3.656;2022-07-29T13:53:02;9.45;;;3.28;;
27543;SDS011;17996;51.056;3.656;2022-07-29T13:55:29;15.32;;;3.35;;
27543;SDS011;17996;51.056;3.656;2022-07-29T13:57:54;6.68;;;2.83;;
27543;SDS011;17996;51.056;3.656;2022-07-29T14:00:20;9.05;;;2.10;;
27543;SDS011;17996;51.056;3.656;2022-07-29T14:02:46;7.70;;;2.20;;
27543;SDS011;17996;51.056;3.656;2022-07-29T14:05:12;11.70;;;2.30;;
27543;SDS011;17996;51.056;3.656;2022-07-29T14:07:38;12.57;;;1.90;;
27543;SDS011;17996;51.056;3.656;2022-07-29T14:10:04;9.15;;;2.20;;
27543;SDS011;17996;51.056;3.656;2022-07-29T14:12:30;4.68;;;2.30;;
27543;SDS011;17996;51.056;3.656;2022-07-29T14:14:57;6.72;;;2.13;;
27543;SDS011;17996;51.056;3.656;2022-07-29T14:17:23;7.72;;;2.25;;
27543;SDS011;17996;51.056;3.656;2022-07-29T14:19:48;8.65;;;2.47;;
27543;SDS011;17996;51.056;3.656;2022-07-29T14:22:14;8.25;;;2.28;;
27543;SDS011;17996;51.056;3.656;2022-07-29T14:24:40;7.95;;;2.08;;
27543;SDS011;17996;51.056;3.656;2022-07-29T14:27:06;7.80;;;2.45;;
27543;SDS011;17996;51.056;3.656;2022-07-29T14:29:32;10.18;;;2.45;;
27543;SDS011;17996;51.056;3.656;2022-07-29T14:31:58;9.15;;;2.33;;
27543;SDS011;17996;51.056;3.656;2022-07-29T14:34:24;12.52;;;2.53;;
27543;SDS011;17996;51.056;3.656;2022-07-29T14:36:50;10.52;;;2.17;;
27543;SDS011;17996;51.056;3.656;2022-07-29T14:39:16;6.65;;;2.40;;
27543;SDS011;17996;51.056;3.656;2022-07-29T14:41:42;8.07;;;2.35;;
27543;SDS011;17996;51.056;3.656;2022-07-29T14:44:08;5.93;;;2.55;;
27543;SDS011;17996;51.056;3.656;2022-07-29T14:46:34;5.82;;;2.20;;
27543;SDS011;17996;51.056;3.656;2022-07-29T14:49:00;4.63;;;2.13;;
27543;SDS011;17996;51.056;3.656;2022-07-29T14:51:25;7.95;;;2.25;;
27543;SDS011;17996;51.056;3.656;2022-07-29T14:53:52;8.30;;;2.38;;
27543;SDS011;17996;51.056;3.656;2022-07-29T14:56:17;11.63;;;3.22;;
27543;SDS011;17996;51.056;3.656;2022-07-29T14:58:43;13.82;;;2.05;;
27543;SDS011;17996;51.056;3.656;2022-07-29T15:01:09;9.60;;;2.50;;
27543;SDS011;17996;51.056;3.656;2022-07-29T15:03:34;5.03;;;2.25;;
27543;SDS011;17996;51.056;3.656;2022-07-29T15:06:00;10.82;;;2.70;;
27543;SDS011;17996;51.056;3.656;2022-07-29T15:08:26;6.93;;;2.13;;
27543;SDS011;17996;51.056;3.656;2022-07-29T15:10:55;5.80;;;1.90;;
27543;SDS011;17996;51.056;3.656;2022-07-29T15:13:24;9.15;;;2.30;;
27543;SDS011;17996;51.056;3.656;2022-07-29T15:15:50;7.93;;;2.13;;
27543;SDS011;17996;51.056;3.656;2022-07-29T15:18:16;3.88;;;1.75;;
27543;SDS011;17996;51.056;3.656;2022-07-29T15:20:42;11.95;;;2.85;;
27543;SDS011;17996;51.056;3.656;2022-07-29T15:23:09;12.38;;;2.15;;
27543;SDS011;17996;51.056;3.656;2022-07-29T15:25:37;5.05;;;1.95;;
27543;SDS011;17996;51.056;3.656;2022-07-29T15:28:03;7.53;;;2.15;;
27543;SDS011;17996;51.056;3.656;2022-07-29T15:32:58;14.57;;;2.03;;
27543;SDS011;17996;51.056;3.656;2022-07-29T15:35:24;7.85;;;2.08;;
27543;SDS011;17996;51.056;3.656;2022-07-29T15:37:49;10.50;;;2.45;;
27543;SDS011;17996;51.056;3.656;2022-07-29T15:40:15;7.00;;;2.28;;
27543;SDS011;17996;51.056;3.656;2022-07-29T15:42:41;4.47;;;1.73;;
27543;SDS011;17996;51.056;3.656;2022-07-29T15:45:07;5.03;;;1.58;;
27543;SDS011;17996;51.056;3.656;2022-07-29T15:47:34;4.97;;;2.03;;
27543;SDS011;17996;51.056;3.656;2022-07-29T15:50:00;9.38;;;2.03;;
27543;SDS011;17996;51.056;3.656;2022-07-29T15:52:26;6.20;;;2.22;;
27543;SDS011;17996;51.056;3.656;2022-07-29T15:54:55;9.00;;;2.83;;
27543;SDS011;17996;51.056;3.656;2022-07-29T15:57:21;6.80;;;2.10;;
27543;SDS011;17996;51.056;3.656;2022-07-29T15:59:47;5.72;;;2.05;;
27543;SDS011;17996;51.056;3.656;2022-07-29T16:02:13;8.02;;;2.47;;
27543;SDS011;17996;51.056;3.656;2022-07-29T16:04:39;9.23;;;2.10;;
27543;SDS011;17996;51.056;3.656;2022-07-29T16:07:05;10.50;;;2.58;;